Time;durP1;ratioP1;P1;durP2;ratioP2;P2;SDS_P1;SDS_P2;PMS_P1;PMS_P2;Temp;Humidity;BMP_temperature;BMP_pressure;BME280_temperature;BME280_humidity;BME280_pressure;Samples;Min_cycle;Max_cycle;Signal;HPM_P1;HPM_P2
2023/08/26 00:04:10;;;;;;;11.60;10.40;;;;;;;20.80;88.19;98875.91;435966;1253;170308;-60
2023/08/26 00:14:18;;;;;;;14.60;11.90;;;;;;;20.68;89.81;98878.11;435548;1253;140118;-58
2023/08/26 00:24:24;;;;;;;14.10;11.30;;;;;;;20.57;90.80;98882.69;435066;1257;140453;-60
2023/08/26 00:34:30;;;;;;;12.20;11.20;;;;;;;20.37;92.16;98879.05;435192;1257;140245;-60
2023/08/26 00:44:36;;;;;;;12.30;11.20;;;;;;;20.25;94.35;98862.45;435241;1257;139953;-60
2023/08/26 00:54:42;;;;;;;14.00;11.70;;;;;;;20.18;95.79;98859.29;434976;1258;139559;-60
2023/08/26 01:04:48;;;;;;;17.90;11.20;;;;;;;20.14;96.98;98866.69;435559;1256;139960;-60
2023/08/26 01:15:01;;;;;;;12.20;11.10;;;;;;;20.04;97.58;98869.79;435860;1253;139948;-60
2023/08/26 01:25:09;;;;;;;12.20;11.10;;;;;;;19.89;97.80;98867.52;435132;1253;140329;-59
2023/08/26 01:35:18;;;;;;;11.90;10.90;;;;;;;19.72;98.82;98869.59;435294;1254;139585;-59
2023/08/26 01:45:24;;;;;;;13.30;12.00;;;;;;;19.60;99.98;98884.02;435167;1253;139669;-59
2023/08/26 01:55:30;;;;;;;11.40;10.40;;;;;;;19.49;100.00;98876.42;435164;1257;139871;-62
2023/08/26 02:05:36;;;;;;;13.80;12.50;;;;;;;19.38;100.00;98874.08;435354;1256;140257;-60
2023/08/26 02:15:44;;;;;;;11.80;10.70;;;;;;;19.28;100.00;98877.32;435644;1257;139944;-63
2023/08/26 02:25:48;;;;;;;;;;;;;;;19.18;100.00;98871.70;435560;1256;139767;-60
2023/08/26 02:35:54;;;;;;;11.70;10.60;;;;;;;19.04;100.00;98866.87;435411;1256;127249;-60
2023/08/26 02:46:00;;;;;;;11.00;10.00;;;;;;;18.95;100.00;98876.36;435743;1257;140399;-60
2023/08/26 02:56:06;;;;;;;12.40;11.20;;;;;;;18.85;100.00;98876.72;435581;1256;139807;-58
2023/08/26 03:06:12;;;;;;;11.80;10.50;;;;;;;18.72;100.00;98871.60;435430;1257;139640;-60
2023/08/26 03:16:18;;;;;;;11.50;10.30;;;;;;;18.56;100.00;98882.16;435236;1256;139663;-59
2023/08/26 03:26:24;;;;;;;12.40;9.70;;;;;;;18.43;100.00;98893.64;435089;1256;139745;-59
2023/08/26 03:36:30;;;;;;;9.90;8.90;;;;;;;18.31;100.00;98898.15;435646;1256;139916;-60
2023/08/26 03:46:36;;;;;;;10.40;9.50;;;;;;;18.18;100.00;98908.90;435172;1258;139549;-60
2023/08/26 03:56:42;;;;;;;9.60;8.70;;;;;;;18.17;100.00;98905.64;435164;1258;139604;-60
2023/08/26 04:06:47;;;;;;;13.30;9.70;;;;;;;18.22;100.00;98913.45;434961;1258;141437;-60
2023/08/26 04:16:53;;;;;;;11.00;9.20;;;;;;;18.38;100.00;98911.20;435086;1257;141425;-59
2023/08/26 04:26:59;;;;;;;9.00;8.30;;;;;;;18.67;100.00;98924.21;435258;1254;139579;-60
2023/08/26 04:37:05;;;;;;;9.60;8.70;;;;;;;18.95;100.00;98920.63;435632;1257;140147;-59
2023/08/26 04:47:11;;;;;;;9.70;8.90;;;;;;;19.15;100.00;98934.27;435494;1257;140293;-60
2023/08/26 04:57:17;;;;;;;10.30;8.80;;;;;;;19.41;100.00;98945.82;436015;1257;140024;-60
2023/08/26 05:07:23;;;;;;;9.70;8.70;;;;;;;19.77;100.00;98944.00;435591;1257;140124;-60
2023/08/26 05:17:29;;;;;;;10.60;9.10;;;;;;;20.24;100.00;98947.95;435613;1257;140380;-60
2023/08/26 05:27:35;;;;;;;9.90;8.40;;;;;;;23.31;100.00;98957.73;435335;1254;139554;-60
2023/08/26 05:37:44;;;;;;;6.50;5.80;;;;;;;30.61;98.28;98955.73;435312;1257;139545;-61
2023/08/26 05:47:51;;;;;;;8.00;5.10;;;;;;;36.71;82.15;98954.29;435711;1254;140296;-60
2023/08/26 05:57:57;;;;;;;4.60;4.20;;;;;;;40.73;66.35;98945.33;435107;1254;142930;-61
2023/08/26 06:08:03;;;;;;;6.10;3.90;;;;;;;44.18;56.23;98948.52;435146;1257;139794;-61
2023/08/26 06:18:09;;;;;;;4.10;3.40;;;;;;;47.10;43.31;98950.45;435073;1257;139242;-61
2023/08/26 06:28:15;;;;;;;3.50;3.00;;;;;;;49.50;36.55;98958.63;435137;1257;138439;-62
2023/08/26 06:38:21;;;;;;;3.60;3.40;;;;;;;51.36;31.57;98954.86;434970;1257;138639;-61
2023/08/26 06:48:26;;;;;;;3.90;3.50;;;;;;;52.34;28.28;98955.38;435065;1254;138980;-60
2023/08/26 06:58:32;;;;;;;4.00;3.30;;;;;;;53.31;26.00;98956.92;435135;1254;139572;-62
2023/08/26 07:08:38;;;;;;;5.20;4.40;;;;;;;54.04;24.68;98966.50;435141;1257;138390;-61
2023/08/26 07:18:44;;;;;;;4.80;4.50;;;;;;;54.89;23.05;98981.68;435202;1254;138989;-61
2023/08/26 07:28:50;;;;;;;4.20;3.90;;;;;;;56.25;21.82;98989.13;435199;1257;138568;-62
2023/08/26 07:38:56;;;;;;;5.20;4.90;;;;;;;57.02;20.59;98993.56;435697;1257;138906;-61
2023/08/26 07:49:02;;;;;;;5.10;4.70;;;;;;;57.28;19.40;98994.30;435168;1257;138392;-61
2023/08/26 07:59:08;;;;;;;5.40;5.10;;;;;;;57.91;18.65;99005.20;435130;1254;139344;-61
2023/08/26 08:09:16;;;;;;;4.10;3.90;;;;;;;58.53;17.64;99007.72;435290;1253;138368;-63
2023/08/26 08:19:21;;;;;;;2.50;2.00;;;;;;;55.72;17.19;98999.43;435312;1254;139995;-60
2023/08/26 08:29:27;;;;;;;1.30;1.20;;;;;;;50.58;19.08;98988.61;434757;1257;139657;-61
2023/08/26 08:39:33;;;;;;;2.30;1.70;;;;;;;45.55;21.84;98997.79;435179;1255;138780;-61
2023/08/26 08:49:39;;;;;;;2.10;1.40;;;;;;;42.19;24.37;99004.29;435078;1257;138519;-64
2023/08/26 08:59:47;;;;;;;2.20;1.60;;;;;;;39.17;26.75;99008.96;434981;1253;139453;-63
2023/08/26 09:09:53;;;;;;;3.70;1.90;;;;;;;37.37;29.50;99018.77;435967;1254;140065;-61
2023/08/26 09:20:08;;;;;;;4.90;2.00;;;;;;;35.77;31.27;99005.88;436024;1255;138619;-63
2023/08/26 09:30:21;;;;;;;2.30;1.70;;;;;;;33.64;33.81;99006.45;435180;1257;140143;-63
2023/08/26 09:40:26;;;;;;;3.30;1.60;;;;;;;31.78;36.76;99014.34;435161;1253;138602;-61
2023/08/26 09:50:33;;;;;;;1.90;1.80;;;;;;;31.21;39.12;99018.59;435139;1252;138253;-62
2023/08/26 10:00:39;;;;;;;5.00;2.70;;;;;;;31.46;40.11;99011.17;435361;1253;138558;-63
2023/08/26 10:10:51;;;;;;;2.20;1.90;;;;;;;32.04;40.27;99007.94;435394;1253;140039;-63
2023/08/26 10:21:00;;;;;;;4.90;2.00;;;;;;;32.45;39.84;99000.96;435627;1255;138569;-64
2023/08/26 10:31:10;;;;;;;2.50;1.90;;;;;;;32.54;39.33;98988.20;435087;1254;139575;-61
2023/08/26 10:41:16;;;;;;;2.20;2.00;;;;;;;32.55;39.52;98993.80;435103;1254;138555;-62
2023/08/26 10:51:22;;;;;;;3.50;2.50;;;;;;;32.62;39.28;98991.91;435145;1254;138575;-64
2023/08/26 11:01:29;;;;;;;5.10;2.60;;;;;;;32.38;39.52;98983.60;435012;1254;139391;-63
2023/08/26 11:11:35;;;;;;;2.60;2.10;;;;;;;31.85;40.11;98974.45;435428;1256;138463;-62
2023/08/26 11:21:41;;;;;;;4.00;2.30;;;;;;;31.25;40.82;98964.36;435258;1255;138377;-63
2023/08/26 11:31:48;;;;;;;4.10;1.90;;;;;;;30.87;41.68;98969.14;435445;1256;139520;-62
2023/08/26 11:41:54;;;;;;;2.90;2.40;;;;;;;30.50;42.05;98971.66;435081;1254;139905;-62
2023/08/26 11:52:01;;;;;;;3.70;2.30;;;;;;;30.50;42.72;98978.10;435352;1254;138476;-63
2023/08/26 12:02:22;;;;;;;3.50;2.80;;;;;;;30.88;42.39;98948.86;435256;1254;138667;-64
2023/08/26 12:12:29;;;;;;;3.10;2.60;;;;;;;30.88;42.52;98923.67;435379;1256;140236;-63
2023/08/26 12:22:35;;;;;;;3.10;2.50;;;;;;;30.88;42.50;98931.77;435629;1253;139751;-66
2023/08/26 12:32:41;;;;;;;3.50;2.40;;;;;;;31.10;42.49;98951.04;435396;1253;139524;-63
2023/08/26 12:42:47;;;;;;;2.70;2.40;;;;;;;31.37;42.28;98968.50;435011;1257;138683;-64
2023/08/26 12:52:52;;;;;;;3.40;2.60;;;;;;;31.17;42.15;98982.64;435436;1257;139431;-63
2023/08/26 13:02:58;;;;;;;3.70;2.70;;;;;;;30.97;42.52;98965.52;435201;1256;138479;-61
2023/08/26 13:13:04;;;;;;;3.40;2.60;;;;;;;31.14;42.90;98955.48;435422;1254;138944;-61
2023/08/26 13:23:11;;;;;;;3.60;2.50;;;;;;;31.29;42.67;98945.50;435505;1257;139962;-62
2023/08/26 13:33:16;;;;;;;3.10;2.50;;;;;;;31.39;42.90;98940.33;435913;1254;138819;-61
2023/08/26 13:43:22;;;;;;;4.80;2.70;;;;;;;31.29;43.76;98940.07;435833;1254;139532;-61
2023/08/26 13:53:29;;;;;;;4.10;2.20;;;;;;;31.07;44.12;98934.30;435590;1254;143836;-61
2023/08/26 14:03:35;;;;;;;2.60;2.40;;;;;;;30.77;44.85;98924.75;435430;1256;139277;-62
2023/08/26 14:13:41;;;;;;;4.10;2.50;;;;;;;30.09;46.48;98934.48;435421;1254;138488;-60
2023/08/26 14:23:47;;;;;;;4.70;3.40;;;;;;;29.27;48.09;98925.33;434966;1254;140006;-61
2023/08/26 14:33:53;;;;;;;3.30;3.00;;;;;;;28.94;49.31;98922.98;435061;1256;139910;-61
2023/08/26 14:43:59;;;;;;;7.00;2.80;;;;;;;28.46;50.32;98948.38;434975;1257;138787;-61
2023/08/26 14:54:05;;;;;;;8.40;4.30;;;;;;;27.80;51.25;98955.77;435322;1253;138415;-62
2023/08/26 15:04:12;;;;;;;4.80;4.30;;;;;;;27.41;52.26;98958.87;435864;1256;139668;-62
2023/08/26 15:14:18;;;;;;;5.10;4.50;;;;;;;27.41;53.47;98966.63;435610;1254;140557;-60
2023/08/26 15:24:28;;;;;;;5.00;3.40;;;;;;;27.83;53.40;98958.94;435128;1255;140307;-61
2023/08/26 15:34:34;;;;;;;4.40;3.80;;;;;;;28.10;52.92;98959.36;435180;1253;140715;-60
2023/08/26 15:44:39;;;;;;;5.40;3.90;;;;;;;28.24;52.87;98955.48;435249;1256;139520;-61
2023/08/26 15:54:45;;;;;;;4.10;3.70;;;;;;;28.23;52.54;98960.73;435089;1257;139509;-62
2023/08/26 16:04:51;;;;;;;7.20;4.20;;;;;;;28.10;52.86;98960.81;435112;1254;140500;-61
2023/08/26 16:14:57;;;;;;;4.30;3.90;;;;;;;27.79;53.15;98955.86;435048;1253;139537;-62
2023/08/26 16:25:04;;;;;;;5.30;3.40;;;;;;;27.46;53.72;98959.60;435016;1256;139927;-60
2023/08/26 16:35:11;;;;;;;5.60;3.70;;;;;;;27.13;54.16;98967.37;435157;1254;140027;-61
2023/08/26 16:45:17;;;;;;;4.20;2.90;;;;;;;26.86;55.04;98965.07;435336;1257;139959;-63
2023/08/26 16:55:23;;;;;;;4.40;3.60;;;;;;;26.61;55.76;98974.83;435225;1256;138497;-63
2023/08/26 17:05:29;;;;;;;7.70;3.60;;;;;;;26.42;56.67;98967.09;435580;1256;138676;-63
2023/08/26 17:15:35;;;;;;;8.20;3.90;;;;;;;26.19;57.63;98974.59;435483;1257;138453;-62
2023/08/26 17:25:41;;;;;;;4.20;3.50;;;;;;;25.84;58.33;98977.86;435260;1256;139003;-63
2023/08/26 17:35:47;;;;;;;5.60;3.30;;;;;;;25.35;59.55;98978.20;435347;1253;140444;-64
2023/08/26 17:45:53;;;;;;;6.20;4.00;;;;;;;24.86;61.26;98986.13;435556;1257;139623;-62
2023/08/26 17:55:58;;;;;;;5.90;4.00;;;;;;;24.40;63.03;98994.72;435342;1256;139612;-62
2023/08/26 18:06:05;;;;;;;9.10;6.40;;;;;;;23.95;64.69;98998.52;434997;1253;140194;-62
2023/08/26 18:16:11;;;;;;;12.50;9.40;;;;;;;23.55;65.85;99002.45;435672;1257;140702;-62
2023/08/26 18:26:17;;;;;;;13.50;9.70;;;;;;;23.20;67.72;99015.07;435487;1254;141109;-64
2023/08/26 18:36:24;;;;;;;23.50;14.00;;;;;;;22.84;68.95;99016.51;435240;1257;139540;-63
2023/08/26 18:46:30;;;;;;;14.80;11.90;;;;;;;22.50;70.11;99012.98;435269;1256;139529;-61
2023/08/26 18:56:37;;;;;;;17.50;10.30;;;;;;;22.20;71.39;99033.41;435226;1256;140635;-62
2023/08/26 19:06:43;;;;;;;10.60;7.50;;;;;;;21.93;72.53;99045.02;435131;1256;139675;-62
2023/08/26 19:16:48;;;;;;;10.20;7.90;;;;;;;21.69;73.87;99066.36;435160;1253;139826;-62
2023/08/26 19:26:55;;;;;;;11.80;8.80;;;;;;;21.49;75.04;99071.35;435346;1257;139188;-62
2023/08/26 19:37:01;;;;;;;10.70;9.10;;;;;;;21.27;76.35;99055.36;435260;1256;141631;-62
2023/08/26 19:47:07;;;;;;;9.70;8.20;;;;;;;21.08;77.31;99039.48;435151;1259;139466;-65
2023/08/26 19:57:23;;;;;;;10.90;9.30;;;;;;;20.89;77.62;99049.19;436055;1254;138980;-63
2023/08/26 20:07:29;;;;;;;12.10;9.70;;;;;;;20.73;78.91;99044.25;435332;1258;140161;-63
2023/08/26 20:17:36;;;;;;;10.40;9.20;;;;;;;20.63;79.73;99055.15;436104;1253;139749;-63
2023/08/26 20:27:43;;;;;;;11.70;10.20;;;;;;;20.49;80.37;99043.40;435730;1253;140572;-62
2023/08/26 20:37:49;;;;;;;12.10;10.30;;;;;;;20.39;81.66;99026.77;435977;1256;140765;-62
2023/08/26 20:47:55;;;;;;;15.00;10.60;;;;;;;20.28;82.37;99013.20;435729;1256;139454;-62
2023/08/26 20:58:02;;;;;;;20.10;11.90;;;;;;;20.18;83.11;99000.70;435529;1256;140710;-61
2023/08/26 21:08:08;;;;;;;16.60;11.50;;;;;;;20.08;83.86;98989.33;435375;1253;141399;-63
2023/08/26 21:18:14;;;;;;;15.00;11.50;;;;;;;19.98;84.66;98984.43;435528;1257;139637;-62
2023/08/26 21:28:24;;;;;;;14.70;9.90;;;;;;;19.90;85.31;98997.52;435331;1256;139854;-62
2023/08/26 21:38:30;;;;;;;16.20;14.10;;;;;;;19.83;86.18;99006.87;436185;1258;139861;-63
2023/08/26 21:48:36;;;;;;;15.40;11.20;;;;;;;19.69;86.22;99016.74;435554;1257;140463;-63
2023/08/26 21:58:42;;;;;;;14.90;11.00;;;;;;;19.61;87.76;99003.95;435220;1257;139852;-61
2023/08/26 22:08:48;;;;;;;14.40;10.50;;;;;;;19.59;89.41;98993.58;435409;1254;139489;-62
2023/08/26 22:18:54;;;;;;;18.20;11.50;;;;;;;19.54;89.83;98994.16;435386;1257;139700;-62
2023/08/26 22:29:01;;;;;;;12.60;7.90;;;;;;;19.46;90.37;98967.39;435032;1253;140397;-62
2023/08/26 22:39:07;;;;;;;12.60;9.90;;;;;;;19.46;89.26;99001.34;435217;1259;139637;-62
2023/08/26 22:49:24;;;;;;;11.70;8.80;;;;;;;19.45;88.79;99038.78;435496;1257;139318;-63
2023/08/26 22:59:30;;;;;;;12.40;9.30;;;;;;;19.45;89.25;99019.08;435384;1257;141049;-62
2023/08/26 23:09:36;;;;;;;12.60;9.80;;;;;;;19.44;89.84;99019.52;435702;1253;139410;-63
2023/08/26 23:19:42;;;;;;;10.10;8.90;;;;;;;19.44;90.04;99016.65;435648;1256;139574;-62
2023/08/26 23:29:48;;;;;;;11.40;9.40;;;;;;;19.41;90.32;98972.77;435060;1259;140894;-63
2023/08/26 23:39:56;;;;;;;5.20;4.70;;;;;;;19.42;89.94;98901.52;435377;1257;139252;-62
2023/08/26 23:50:02;;;;;;;8.10;3.90;;;;;;;19.52;86.98;98892.84;435147;1257;139590;-62
